Time;durP1;ratioP1;P1;durP2;ratioP2;P2;SDS_P1;SDS_P2;PMS_P1;PMS_P2;Temp;Humidity;BMP_temperature;BMP_pressure;BME280_temperature;BME280_humidity;BME280_pressure;Samples;Min_cycle;Max_cycle;Signal;HPM_P1;HPM_P2
2022/09/03 00:01:01;;;;;;;9.23;3.00;;;15.90;81.70;;;;;;4949822;29;20091;-71
2022/09/03 00:03:37;;;;;;;6.15;2.92;;;15.80;81.70;;;;;;4940310;29;20200;-69
2022/09/03 00:06:11;;;;;;;8.02;3.00;;;15.80;81.70;;;;;;4957391;29;20043;-69
2022/09/03 00:08:43;;;;;;;7.13;2.78;;;15.80;81.70;;;;;;4941054;29;20439;-70
2022/09/03 00:11:26;;;;;;;6.38;3.03;;;15.80;81.70;;;;;;4958128;29;20078;-69
2022/09/03 00:14:02;;;;;;;9.88;2.63;;;15.70;81.80;;;;;;4957458;29;20492;-70
2022/09/03 00:16:35;;;;;;;9.10;2.85;;;15.70;81.90;;;;;;4924854;29;20535;-69
2022/09/03 00:19:02;;;;;;;6.55;2.78;;;15.60;81.80;;;;;;4940634;29;20055;-72
2022/09/03 00:21:44;;;;;;;6.10;2.90;;;15.60;82.00;;;;;;4957154;29;20131;-70
2022/09/03 00:24:13;;;;;;;11.23;3.13;;;15.50;82.10;;;;;;4957913;29;20090;-70
2022/09/03 00:27:02;;;;;;;7.90;2.88;;;15.50;82.10;;;;;;4940242;29;20066;-70
2022/09/03 00:29:37;;;;;;;6.93;2.38;;;15.50;82.20;;;;;;4957690;29;20054;-73
2022/09/03 00:32:12;;;;;;;8.43;2.97;;;15.50;82.20;;;;;;4924910;29;20059;-70
2022/09/03 00:34:42;;;;;;;12.32;3.13;;;15.50;82.20;;;;;;4939801;29;20484;-69
2022/09/03 00:37:09;;;;;;;8.85;2.80;;;15.40;82.10;;;;;;4957663;29;20046;-70
2022/09/03 00:39:40;;;;;;;6.40;2.58;;;15.40;82.20;;;;;;4939947;29;20130;-71
2022/09/03 00:42:22;;;;;;;8.88;2.45;;;15.40;82.30;;;;;;4957812;29;20066;-71
2022/09/03 00:45:09;;;;;;;6.80;2.40;;;15.40;82.40;;;;;;4956853;29;20047;-69
2022/09/03 00:48:06;;;;;;;6.47;2.47;;;15.40;82.40;;;;;;4939598;29;20043;-70
2022/09/03 00:51:28;;;;;;;7.25;2.50;;;15.40;82.40;;;;;;4957445;29;20066;-70
2022/09/03 00:53:53;;;;;;;10.38;2.72;;;15.40;82.30;;;;;;4940644;29;20055;-69
2022/09/03 00:56:43;;;;;;;8.25;2.70;;;15.40;82.20;;;;;;4957625;29;20054;-69
2022/09/03 00:59:24;;;;;;;8.68;2.55;;;15.40;82.40;;;;;;4939885;29;20059;-70
2022/09/03 01:02:02;;;;;;;8.45;2.22;;;15.30;82.20;;;;;;4924390;29;20055;-70
2022/09/03 01:04:46;;;;;;;6.88;2.45;;;15.30;82.40;;;;;;4939654;29;20055;-70
2022/09/03 01:07:39;;;;;;;6.00;2.55;;;15.20;82.50;;;;;;4923468;29;20063;-72
2022/09/03 01:10:26;;;;;;;6.82;2.70;;;15.20;82.60;;;;;;4957253;29;20078;-70
2022/09/03 01:13:06;;;;;;;8.00;2.60;;;15.10;82.70;;;;;;4939482;29;20143;-70
2022/09/03 01:15:44;;;;;;;6.13;2.28;;;15.10;82.70;;;;;;4956918;29;20404;-70
2022/09/03 01:18:30;;;;;;;7.55;2.35;;;15.10;82.80;;;;;;4957212;29;20047;-70
2022/09/03 01:21:33;;;;;;;9.47;3.03;;;15.00;82.90;;;;;;4958417;29;20404;-70
2022/09/03 01:23:59;;;;;;;5.32;2.40;;;15.00;83.00;;;;;;4890400;29;20056;-70
2022/09/03 01:26:39;;;;;;;7.32;2.53;;;15.00;83.10;;;;;;4939976;29;20051;-70
2022/09/03 01:29:43;;;;;;;7.55;2.53;;;15.00;83.20;;;;;;4957729;29;20416;-70
2022/09/03 01:32:30;;;;;;;9.25;2.70;;;15.00;83.10;;;;;;4943201;29;20138;-72
2022/09/03 01:35:18;;;;;;;7.70;2.47;;;14.90;83.20;;;;;;4956305;29;20433;-71
2022/09/03 01:37:57;;;;;;;4.72;2.20;;;14.90;83.40;;;;;;4930727;29;20047;-70
2022/09/03 01:40:36;;;;;;;7.03;2.63;;;14.90;84.10;;;;;;4955825;29;20047;-70
2022/09/03 01:43:11;;;;;;;6.30;2.22;;;14.90;84.20;;;;;;4938823;29;20082;-71
2022/09/03 01:45:59;;;;;;;10.73;2.53;;;14.80;83.40;;;;;;4938487;29;20047;-69
2022/09/03 01:48:42;;;;;;;7.35;2.50;;;14.80;83.60;;;;;;4956172;29;20063;-70
2022/09/03 01:51:19;;;;;;;6.97;2.22;;;14.80;83.50;;;;;;4939085;29;20051;-70
2022/09/03 01:54:04;;;;;;;7.13;2.20;;;14.80;83.70;;;;;;4938570;29;20050;-70
2022/09/03 01:56:58;;;;;;;8.70;2.40;;;14.80;83.60;;;;;;4938561;29;20062;-73
2022/09/03 01:59:31;;;;;;;9.38;2.35;;;14.80;83.80;;;;;;4955261;29;20142;-73
2022/09/03 02:02:18;;;;;;;7.72;2.58;;;14.80;83.60;;;;;;4955695;29;20051;-70
2022/09/03 02:04:58;;;;;;;4.75;2.13;;;14.80;83.60;;;;;;4922589;29;20485;-70
2022/09/03 02:07:32;;;;;;;5.85;2.55;;;14.80;83.70;;;;;;4955039;29;20429;-70
2022/09/03 02:09:59;;;;;;;5.07;2.38;;;14.80;83.70;;;;;;4938875;29;20102;-71
2022/09/03 02:12:28;;;;;;;7.75;2.35;;;14.80;83.60;;;;;;4955358;29;20130;-70
2022/09/03 02:14:54;;;;;;;6.97;2.20;;;14.90;83.70;;;;;;4938775;29;20453;-70
2022/09/03 02:17:20;;;;;;;8.88;2.75;;;14.90;83.60;;;;;;4955186;29;20046;-69
2022/09/03 02:19:46;;;;;;;7.40;2.45;;;14.90;83.40;;;;;;4921870;29;20143;-69
2022/09/03 02:22:12;;;;;;;7.30;2.67;;;15.00;83.30;;;;;;4955092;29;20126;-71
2022/09/03 02:24:38;;;;;;;8.65;2.70;;;15.00;83.40;;;;;;4906118;29;20492;-70
2022/09/03 02:27:04;;;;;;;5.57;2.43;;;15.00;83.30;;;;;;4937803;29;20048;-72
2022/09/03 02:29:31;;;;;;;7.47;2.30;;;15.10;83.30;;;;;;4955255;29;20121;-71
2022/09/03 02:31:57;;;;;;;5.35;2.42;;;15.10;83.30;;;;;;4937475;29;20547;-70
2022/09/03 02:34:23;;;;;;;7.53;2.40;;;15.10;83.10;;;;;;4954965;29;20519;-73
2022/09/03 02:36:49;;;;;;;6.03;2.50;;;15.10;83.20;;;;;;4955294;29;20393;-70
2022/09/03 02:39:15;;;;;;;7.18;2.25;;;15.10;83.10;;;;;;4937800;29;20043;-70
2022/09/03 02:41:41;;;;;;;4.30;1.88;;;15.20;83.20;;;;;;4955125;29;20066;-70
2022/09/03 02:44:30;;;;;;;7.47;2.60;;;15.20;83.20;;;;;;4922629;29;20344;-70
2022/09/03 02:47:02;;;;;;;4.88;1.75;;;15.20;83.30;;;;;;4937562;29;20066;-71
2022/09/03 02:49:28;;;;;;;12.43;2.60;;;15.20;83.20;;;;;;4954672;29;20047;-72
2022/09/03 02:52:10;;;;;;;4.10;2.00;;;15.20;83.20;;;;;;4937863;29;20076;-70
2022/09/03 02:54:40;;;;;;;5.30;2.22;;;15.20;83.20;;;;;;4953604;28;20047;-72
2022/09/03 02:57:12;;;;;;;8.45;2.58;;;15.20;83.10;;;;;;4938208;29;20129;-70
2022/09/03 02:59:38;;;;;;;5.25;2.35;;;15.20;83.30;;;;;;4954677;29;20155;-72
2022/09/03 03:02:04;;;;;;;7.03;2.47;;;15.20;83.30;;;;;;4921420;29;20059;-70
2022/09/03 03:04:31;;;;;;;7.10;2.40;;;15.20;83.30;;;;;;4954928;29;20429;-70
2022/09/03 03:06:57;;;;;;;5.13;1.92;;;15.10;83.30;;;;;;4937006;29;20452;-70
2022/09/03 03:09:23;;;;;;;4.50;2.40;;;15.10;83.50;;;;;;4905942;29;20537;-74
2022/09/03 03:11:50;;;;;;;4.93;2.33;;;15.10;83.40;;;;;;4954496;29;20138;-70
2022/09/03 03:14:17;;;;;;;8.10;2.95;;;15.10;83.30;;;;;;4954422;29;20059;-70
2022/09/03 03:16:43;;;;;;;6.97;2.60;;;15.10;83.40;;;;;;4954152;29;20068;-70
2022/09/03 03:19:09;;;;;;;10.30;2.60;;;15.10;83.40;;;;;;4937142;29;20047;-72
2022/09/03 03:21:35;;;;;;;6.40;2.20;;;15.00;83.50;;;;;;4937822;29;20087;-70
2022/09/03 03:24:02;;;;;;;5.40;2.28;;;15.00;83.60;;;;;;4937084;29;20526;-71
2022/09/03 03:26:28;;;;;;;8.98;2.50;;;15.00;83.60;;;;;;4937266;29;20086;-70
2022/09/03 03:28:58;;;;;;;8.80;2.67;;;15.00;83.80;;;;;;4954041;29;20122;-70
2022/09/03 03:31:24;;;;;;;6.00;2.60;;;14.90;83.80;;;;;;4953974;29;20114;-71
2022/09/03 03:34:02;;;;;;;6.20;2.20;;;14.90;83.80;;;;;;4921357;29;20051;-70
2022/09/03 03:36:31;;;;;;;8.00;2.65;;;14.90;84.20;;;;;;4920963;29;20058;-70
2022/09/03 03:38:58;;;;;;;7.13;2.88;;;14.90;84.00;;;;;;4936654;29;20058;-71
2022/09/03 03:41:26;;;;;;;10.30;2.70;;;14.80;84.00;;;;;;4936969;29;20055;-70
2022/09/03 03:43:57;;;;;;;6.70;2.58;;;14.80;84.10;;;;;;4937522;29;20424;-71
2022/09/03 03:46:24;;;;;;;9.75;2.30;;;14.80;84.10;;;;;;4954041;29;20201;-71
2022/09/03 03:48:51;;;;;;;8.75;2.38;;;14.80;84.30;;;;;;4920889;29;20051;-70
2022/09/03 03:51:18;;;;;;;8.10;2.40;;;14.70;84.20;;;;;;4954467;29;20090;-71
2022/09/03 03:53:44;;;;;;;8.15;2.30;;;14.70;84.30;;;;;;4954087;29;20131;-70
2022/09/03 03:56:12;;;;;;;6.50;2.42;;;14.70;84.40;;;;;;4953724;29;20048;-70
2022/09/03 03:58:42;;;;;;;5.60;2.50;;;14.60;84.50;;;;;;4954740;29;20046;-71
2022/09/03 04:01:17;;;;;;;6.88;2.20;;;14.60;84.60;;;;;;4953952;29;20070;-70
2022/09/03 04:03:43;;;;;;;7.03;2.22;;;14.50;84.70;;;;;;4953786;29;20051;-75
2022/09/03 04:06:12;;;;;;;7.78;2.25;;;14.40;84.80;;;;;;4956263;28;20066;-71
2022/09/03 04:08:39;;;;;;;5.63;2.53;;;14.40;85.00;;;;;;4940042;29;20480;-70
2022/09/03 04:11:08;;;;;;;8.27;2.30;;;14.30;85.00;;;;;;4940739;29;20054;-70
2022/09/03 04:13:37;;;;;;;14.30;2.50;;;14.30;85.30;;;;;;4940151;29;20077;-70
2022/09/03 04:16:04;;;;;;;5.90;2.30;;;14.30;85.50;;;;;;4939880;29;20143;-70
2022/09/03 04:18:31;;;;;;;5.18;2.15;;;14.20;85.60;;;;;;4924490;29;20079;-70
2022/09/03 04:21:18;;;;;;;7.90;2.95;;;14.10;85.80;;;;;;4957496;29;20392;-71
2022/09/03 04:23:46;;;;;;;5.07;2.50;;;14.10;86.20;;;;;;4940227;29;20058;-73
2022/09/03 04:26:14;;;;;;;6.45;2.45;;;14.00;86.10;;;;;;4957091;29;20051;-70
2022/09/03 04:28:40;;;;;;;9.63;2.63;;;14.00;86.20;;;;;;4957123;29;20362;-70
2022/09/03 04:31:09;;;;;;;7.90;2.60;;;13.90;86.30;;;;;;4956818;29;20047;-71
2022/09/03 04:33:36;;;;;;;6.63;2.70;;;13.90;86.60;;;;;;4939956;29;20062;-70
2022/09/03 04:36:05;;;;;;;6.68;2.53;;;13.80;87.00;;;;;;4957170;29;20055;-70
2022/09/03 04:38:32;;;;;;;6.43;2.50;;;13.80;87.00;;;;;;4956784;29;20040;-69
2022/09/03 04:41:01;;;;;;;5.38;2.53;;;13.70;87.20;;;;;;4939565;29;20429;-70
2022/09/03 04:43:28;;;;;;;5.75;2.72;;;13.60;87.40;;;;;;4924219;29;20047;-70
2022/09/03 04:45:58;;;;;;;6.80;2.70;;;13.60;88.20;;;;;;4956214;29;20518;-70
2022/09/03 04:48:25;;;;;;;9.13;2.75;;;13.60;87.70;;;;;;4956586;29;20050;-70
2022/09/03 04:50:52;;;;;;;14.07;3.05;;;13.50;87.60;;;;;;4956523;29;20087;-69
2022/09/03 04:53:17;;;;;;;9.03;2.83;;;13.60;87.90;;;;;;4956574;29;20078;-70
2022/09/03 04:55:43;;;;;;;9.82;3.30;;;13.50;87.90;;;;;;4956458;29;20457;-70
2022/09/03 04:58:09;;;;;;;9.73;2.85;;;13.60;88.10;;;;;;4939637;29;20080;-73
2022/09/03 05:00:38;;;;;;;7.80;2.97;;;13.50;88.00;;;;;;4940055;29;20349;-70
2022/09/03 05:03:04;;;;;;;8.73;2.60;;;13.50;88.30;;;;;;4956365;29;20055;-72
2022/09/03 05:05:33;;;;;;;5.32;2.75;;;13.50;88.20;;;;;;4956496;29;20043;-70
2022/09/03 05:08:00;;;;;;;8.85;2.85;;;13.50;88.40;;;;;;4938714;29;20086;-71
2022/09/03 05:10:26;;;;;;;7.13;2.80;;;13.50;88.30;;;;;;4939300;29;20054;-71
2022/09/03 05:13:18;;;;;;;4.83;2.70;;;13.60;88.30;;;;;;4956111;29;20048;-71
2022/09/03 05:15:44;;;;;;;8.25;3.42;;;13.60;88.70;;;;;;4935977;29;20614;-70
2022/09/03 05:18:10;;;;;;;7.53;3.08;;;13.60;88.40;;;;;;4955115;28;20090;-70
2022/09/03 05:20:35;;;;;;;11.55;3.13;;;13.70;88.30;;;;;;4955911;29;20106;-70
2022/09/03 05:23:03;;;;;;;6.43;3.13;;;13.70;88.30;;;;;;4939080;29;20043;-71
2022/09/03 05:25:32;;;;;;;8.98;3.35;;;13.80;88.30;;;;;;4939257;29;20496;-70
2022/09/03 05:27:59;;;;;;;11.82;3.45;;;13.90;88.50;;;;;;4923035;29;20047;-70
2022/09/03 05:30:25;;;;;;;6.30;3.22;;;13.90;88.20;;;;;;4938505;29;20506;-70
2022/09/03 05:32:51;;;;;;;8.05;3.63;;;14.00;88.20;;;;;;4938835;29;20133;-75
2022/09/03 05:35:17;;;;;;;7.72;3.17;;;14.10;88.20;;;;;;4955587;29;20054;-71
2022/09/03 05:37:43;;;;;;;8.73;3.30;;;14.10;88.60;;;;;;4956440;29;20482;-72
2022/09/03 05:40:10;;;;;;;15.93;3.40;;;14.20;88.30;;;;;;4955153;29;20495;-71
2022/09/03 05:42:39;;;;;;;8.15;3.25;;;14.30;88.10;;;;;;4955680;29;20095;-71
2022/09/03 05:45:09;;;;;;;16.38;3.85;;;14.40;88.00;;;;;;4923002;29;20047;-70
2022/09/03 05:47:38;;;;;;;6.15;2.75;;;14.40;88.00;;;;;;4938455;29;20441;-70
2022/09/03 05:50:09;;;;;;;9.85;2.95;;;14.50;87.90;;;;;;4922496;29;20055;-70
2022/09/03 05:52:36;;;;;;;12.32;3.97;;;14.50;87.80;;;;;;4938496;29;20106;-70
2022/09/03 05:55:02;;;;;;;10.00;2.72;;;14.60;87.70;;;;;;4955100;29;20043;-69
2022/09/03 05:57:29;;;;;;;10.48;3.55;;;14.70;87.60;;;;;;4955794;29;20044;-70
2022/09/03 05:59:55;;;;;;;10.48;3.30;;;14.70;87.90;;;;;;4938050;29;20059;-73
2022/09/03 06:02:21;;;;;;;10.73;3.67;;;14.80;87.60;;;;;;4955271;29;20065;-70
2022/09/03 06:04:47;;;;;;;6.97;3.13;;;14.80;87.40;;;;;;4938444;29;20047;-71
2022/09/03 06:07:13;;;;;;;9.68;3.47;;;14.90;87.80;;;;;;4938085;29;20059;-70
2022/09/03 06:09:39;;;;;;;11.53;3.77;;;14.90;87.70;;;;;;4955673;29;20055;-70
2022/09/03 06:12:05;;;;;;;10.35;3.38;;;14.90;87.70;;;;;;4955054;29;20126;-71
2022/09/03 06:14:30;;;;;;;12.65;3.80;;;14.90;87.50;;;;;;4954919;29;20098;-70
2022/09/03 06:16:56;;;;;;;8.77;3.50;;;14.90;87.50;;;;;;4955443;29;20058;-74
2022/09/03 06:19:22;;;;;;;9.25;3.60;;;14.90;87.70;;;;;;4955278;29;20491;-70
2022/09/03 06:21:47;;;;;;;6.30;3.13;;;14.90;87.90;;;;;;4954872;29;20043;-70
2022/09/03 06:24:19;;;;;;;10.73;3.67;;;14.80;88.00;;;;;;4937746;29;20063;-72
2022/09/03 06:26:45;;;;;;;7.93;3.75;;;14.90;88.10;;;;;;4937495;29;20047;-71
2022/09/03 06:29:11;;;;;;;13.43;3.77;;;15.00;88.10;;;;;;4954686;28;20055;-72
2022/09/03 06:31:38;;;;;;;10.40;3.70;;;15.00;88.30;;;;;;4954853;29;20051;-70
2022/09/03 06:34:04;;;;;;;10.10;3.72;;;15.10;88.20;;;;;;4937900;29;20106;-71
2022/09/03 06:36:30;;;;;;;13.30;3.83;;;15.20;87.90;;;;;;4954978;29;20126;-70
2022/09/03 06:38:57;;;;;;;9.60;4.10;;;15.20;88.20;;;;;;4954916;29;20079;-71
2022/09/03 06:41:30;;;;;;;7.22;3.47;;;15.20;88.00;;;;;;4937849;29;20057;-70
2022/09/03 06:44:02;;;;;;;23.58;4.28;;;15.30;87.90;;;;;;4954848;29;20039;-70
2022/09/03 06:46:37;;;;;;;7.40;3.75;;;15.30;87.90;;;;;;4922066;29;20086;-70
2022/09/03 06:49:03;;;;;;;10.75;4.00;;;15.30;87.90;;;;;;4955170;29;20054;-71
2022/09/03 06:51:32;;;;;;;11.90;3.88;;;15.40;88.30;;;;;;4954916;29;20049;-70
2022/09/03 06:54:11;;;;;;;9.60;3.95;;;15.40;88.10;;;;;;4937876;29;20059;-71
2022/09/03 06:56:39;;;;;;;8.93;3.97;;;15.40;87.90;;;;;;4955405;29;20078;-70
2022/09/03 06:59:10;;;;;;;14.43;3.85;;;15.50;87.80;;;;;;4954703;29;20468;-71
2022/09/03 07:01:39;;;;;;;9.27;4.35;;;15.60;88.00;;;;;;4922062;29;20054;-72
2022/09/03 07:04:06;;;;;;;11.95;4.18;;;15.60;88.10;;;;;;4955215;29;20134;-71
2022/09/03 07:06:38;;;;;;;13.48;4.65;;;15.70;87.40;;;;;;4954290;29;20071;-70
2022/09/03 07:09:08;;;;;;;12.18;4.30;;;15.80;87.50;;;;;;4954377;29;20051;-75
2022/09/03 07:11:35;;;;;;;10.63;3.67;;;15.80;87.50;;;;;;4938144;29;20495;-69
2022/09/03 07:14:02;;;;;;;;;;;15.90;87.40;;;;;;4955133;29;20062;-69
2022/09/03 07:16:34;;;;;;;11.18;4.40;;;15.90;87.60;;;;;;4954107;29;19929;-71
2022/09/03 07:19:00;;;;;;;13.95;4.53;;;16.00;87.30;;;;;;4937882;29;20472;-70
2022/09/03 07:21:28;;;;;;;9.88;4.13;;;16.10;87.30;;;;;;4954944;29;20042;-70
2022/09/03 07:23:55;;;;;;;8.55;3.60;;;16.20;86.80;;;;;;4937093;29;20095;-71
2022/09/03 07:26:26;;;;;;;15.68;4.82;;;16.30;86.80;;;;;;4954120;29;20048;-71
2022/09/03 07:28:53;;;;;;;10.82;4.07;;;16.40;86.80;;;;;;4955133;29;20083;-70
2022/09/03 07:31:25;;;;;;;12.25;4.53;;;16.40;86.60;;;;;;4954493;29;20110;-71
2022/09/03 07:33:54;;;;;;;9.10;4.07;;;16.50;86.00;;;;;;4937756;29;20379;-71
2022/09/03 07:36:21;;;;;;;8.93;3.88;;;16.60;86.10;;;;;;4937427;29;20354;-71
2022/09/03 07:38:46;;;;;;;12.18;4.30;;;16.60;86.00;;;;;;4921598;29;20055;-70
2022/09/03 07:41:14;;;;;;;12.13;3.95;;;16.80;85.40;;;;;;4956967;28;20054;-71
2022/09/03 07:43:47;;;;;;;10.50;3.78;;;16.80;85.50;;;;;;4941396;29;20125;-72
2022/09/03 07:46:22;;;;;;;12.07;3.80;;;16.90;85.40;;;;;;4942085;29;20047;-69
2022/09/03 07:49:00;;;;;;;12.93;3.53;;;16.90;85.40;;;;;;4959577;29;20122;-68
2022/09/03 07:51:28;;;;;;;12.48;4.30;;;17.00;85.60;;;;;;4959778;29;20126;-70
2022/09/03 07:54:00;;;;;;;9.60;3.70;;;17.10;85.20;;;;;;4928093;29;20476;-70
2022/09/03 07:56:29;;;;;;;13.18;3.78;;;17.20;84.80;;;;;;4960149;29;20086;-71
2022/09/03 07:58:56;;;;;;;12.70;3.58;;;17.30;85.50;;;;;;4960827;29;20054;-70
2022/09/03 08:01:24;;;;;;;9.98;4.40;;;17.40;84.60;;;;;;4942853;29;20051;-69
2022/09/03 08:03:52;;;;;;;11.05;3.72;;;17.50;84.20;;;;;;4959425;29;20455;-71
2022/09/03 08:06:20;;;;;;;7.75;3.88;;;17.50;84.10;;;;;;4958213;29;20055;-71
2022/09/03 08:08:47;;;;;;;14.60;4.13;;;17.60;84.00;;;;;;4940745;29;20059;-70
2022/09/03 08:11:19;;;;;;;7.88;3.70;;;17.70;83.80;;;;;;4957578;29;20134;-73
2022/09/03 08:13:56;;;;;;;8.82;3.40;;;17.70;83.70;;;;;;4957624;29;20074;-71
2022/09/03 08:16:22;;;;;;;12.18;3.63;;;17.80;83.70;;;;;;4957199;29;20069;-71
2022/09/03 08:18:50;;;;;;;6.90;3.72;;;17.90;83.50;;;;;;4925174;29;20051;-71
2022/09/03 08:21:18;;;;;;;10.98;3.65;;;18.00;83.30;;;;;;4940247;29;20091;-70
2022/09/03 08:23:49;;;;;;;12.82;3.42;;;18.10;83.30;;;;;;4908975;29;20146;-71
2022/09/03 08:26:17;;;;;;;7.45;3.53;;;18.20;83.60;;;;;;4956818;28;20518;-71
2022/09/03 08:28:43;;;;;;;8.32;3.58;;;18.30;83.50;;;;;;4939937;29;20091;-70
2022/09/03 08:31:21;;;;;;;10.23;3.60;;;18.40;82.60;;;;;;4957072;29;20047;-72
2022/09/03 08:33:49;;;;;;;10.13;3.50;;;18.50;82.60;;;;;;4940632;29;20110;-73
2022/09/03 08:36:24;;;;;;;14.60;4.10;;;18.50;82.10;;;;;;4939999;29;20046;-71
2022/09/03 08:38:53;;;;;;;10.88;3.20;;;18.60;81.90;;;;;;4940399;29;20069;-70
2022/09/03 08:41:44;;;;;;;15.00;3.42;;;18.70;82.00;;;;;;4956833;29;20055;-71
2022/09/03 08:44:30;;;;;;;8.40;3.20;;;18.70;81.90;;;;;;4956725;29;20047;-71
2022/09/03 08:47:19;;;;;;;10.18;3.35;;;18.80;81.40;;;;;;4957473;29;20126;-71
2022/09/03 08:49:57;;;;;;;9.05;3.00;;;18.90;81.20;;;;;;4957640;29;20073;-71
2022/09/03 08:52:35;;;;;;;15.48;3.13;;;19.00;81.40;;;;;;4955473;28;20058;-72
2022/09/03 08:55:25;;;;;;;11.63;3.38;;;19.10;82.20;;;;;;4939700;29;20083;-71
2022/09/03 08:58:05;;;;;;;7.47;2.90;;;19.20;81.30;;;;;;4957271;29;20047;-70
2022/09/03 09:01:00;;;;;;;9.25;2.75;;;19.20;80.90;;;;;;4957162;29;20043;-71
2022/09/03 09:03:38;;;;;;;11.98;3.35;;;19.40;80.50;;;;;;4939712;29;20054;-71
2022/09/03 09:06:29;;;;;;;6.28;3.13;;;19.50;80.30;;;;;;4939794;29;20062;-70
2022/09/03 09:09:17;;;;;;;7.32;3.20;;;19.50;79.90;;;;;;4955930;29;20071;-72
2022/09/03 09:11:56;;;;;;;12.52;3.28;;;19.60;79.70;;;;;;4956680;29;20054;-71
2022/09/03 09:14:48;;;;;;;13.05;3.10;;;19.70;79.50;;;;;;4956405;29;20047;-71
2022/09/03 09:17:35;;;;;;;7.65;3.22;;;19.80;80.00;;;;;;4956777;29;20142;-72
2022/09/03 09:20:25;;;;;;;9.65;3.30;;;20.00;79.40;;;;;;4939222;29;20055;-71
2022/09/03 09:23:02;;;;;;;11.68;3.15;;;20.00;79.00;;;;;;4956831;29;20062;-72
2022/09/03 09:25:30;;;;;;;7.95;3.03;;;20.10;78.30;;;;;;4956097;29;20047;-72
2022/09/03 09:28:00;;;;;;;7.68;2.88;;;20.20;78.30;;;;;;4955960;29;20047;-71
2022/09/03 09:30:28;;;;;;;13.32;3.25;;;20.20;78.50;;;;;;4938466;29;20094;-72
2022/09/03 09:32:55;;;;;;;8.68;3.10;;;20.30;78.80;;;;;;4956058;29;20051;-71
2022/09/03 09:35:21;;;;;;;13.00;2.90;;;20.40;77.90;;;;;;4956027;29;20051;-75
2022/09/03 09:37:51;;;;;;;13.18;2.83;;;20.60;78.30;;;;;;4955907;29;20500;-74
2022/09/03 09:40:31;;;;;;;8.68;2.72;;;20.60;78.30;;;;;;4938812;29;20054;-72
2022/09/03 09:43:14;;;;;;;17.33;3.10;;;20.80;78.00;;;;;;4922811;29;20145;-71
2022/09/03 09:45:42;;;;;;;6.95;2.72;;;20.80;77.30;;;;;;4955649;29;20059;-71
2022/09/03 09:48:21;;;;;;;11.50;2.83;;;20.90;76.90;;;;;;4955338;29;20472;-75
2022/09/03 09:50:47;;;;;;;8.75;2.95;;;20.90;76.60;;;;;;4955533;29;20054;-71
2022/09/03 09:53:17;;;;;;;9.48;3.10;;;21.00;76.70;;;;;;4955986;29;20054;-72
2022/09/03 09:55:56;;;;;;;12.82;3.33;;;21.10;76.70;;;;;;4938477;29;20434;-71
2022/09/03 09:58:25;;;;;;;8.68;2.78;;;21.20;76.40;;;;;;4955739;29;20043;-76
2022/09/03 10:01:16;;;;;;;10.15;2.80;;;21.30;76.40;;;;;;4938885;29;20051;-70
2022/09/03 10:03:54;;;;;;;10.57;2.60;;;21.40;76.20;;;;;;4955814;28;20486;-72
2022/09/03 10:09:10;;;;;;;13.30;2.80;;;21.60;74.60;;;;;;4955392;29;20055;-74
2022/09/03 10:11:39;;;;;;;9.20;2.42;;;21.60;74.70;;;;;;4955655;29;20047;-72
2022/09/03 10:14:34;;;;;;;8.43;2.55;;;21.70;74.20;;;;;;4938278;29;20059;-71
2022/09/03 10:17:10;;;;;;;7.53;2.77;;;21.80;73.40;;;;;;4934975;29;20419;-72
2022/09/03 10:20:26;;;;;;;7.45;3.00;;;21.90;72.60;;;;;;4954628;29;20047;-71
2022/09/03 10:23:27;;;;;;;7.85;2.50;;;21.90;73.10;;;;;;4955394;29;20427;-71
2022/09/03 10:26:06;;;;;;;12.43;3.10;;;22.00;73.00;;;;;;4938289;29;20047;-71
2022/09/03 10:28:40;;;;;;;10.25;2.53;;;22.20;72.60;;;;;;4938533;29;20079;-71
2022/09/03 10:31:28;;;;;;;5.18;2.22;;;22.30;71.90;;;;;;4955654;29;20117;-74
2022/09/03 10:33:58;;;;;;;7.32;2.50;;;22.30;71.40;;;;;;4938351;29;20051;-74
2022/09/03 10:36:27;;;;;;;5.95;2.40;;;22.40;71.30;;;;;;4954773;29;20066;-71
2022/09/03 10:39:10;;;;;;;7.10;2.60;;;22.50;71.40;;;;;;4937743;29;20118;-72
2022/09/03 10:42:01;;;;;;;5.82;2.67;;;22.50;71.00;;;;;;4954907;29;20059;-72
2022/09/03 10:44:59;;;;;;;8.27;2.58;;;22.60;71.30;;;;;;4933949;29;20504;-76
2022/09/03 10:47:57;;;;;;;12.52;2.45;;;22.80;69.50;;;;;;4955001;29;20046;-72
2022/09/03 10:50:27;;;;;;;9.15;2.50;;;22.90;68.30;;;;;;4954941;29;20104;-74
2022/09/03 10:53:14;;;;;;;8.05;2.20;;;22.90;69.80;;;;;;4954883;29;20047;-73
2022/09/03 10:55:55;;;;;;;5.13;2.30;;;23.00;68.80;;;;;;4955095;29;20384;-71
2022/09/03 10:58:46;;;;;;;12.75;2.80;;;23.00;69.30;;;;;;4955622;29;20098;-73
2022/09/03 11:01:56;;;;;;;8.98;2.40;;;23.20;67.60;;;;;;4954591;29;20047;-70
2022/09/03 11:04:22;;;;;;;7.40;2.15;;;23.20;68.40;;;;;;4935049;29;20055;-72
2022/09/03 11:06:56;;;;;;;18.53;2.33;;;23.30;68.50;;;;;;4937656;29;20146;-72
2022/09/03 11:09:31;;;;;;;8.25;2.40;;;23.30;66.80;;;;;;4938070;29;20341;-73
2022/09/03 11:12:05;;;;;;;11.23;2.75;;;23.30;67.80;;;;;;4954582;28;20062;-72
2022/09/03 11:14:45;;;;;;;6.00;2.38;;;23.30;67.30;;;;;;4921697;29;20452;-75
2022/09/03 11:17:21;;;;;;;10.88;2.75;;;23.40;67.40;;;;;;4954591;29;20055;-72
2022/09/03 11:20:19;;;;;;;10.00;2.80;;;23.40;66.30;;;;;;4954351;29;20102;-72
2022/09/03 11:22:47;;;;;;;8.60;2.83;;;23.50;66.10;;;;;;4947026;28;20126;-72
2022/09/03 11:25:16;;;;;;;6.88;2.60;;;23.50;65.90;;;;;;4954357;29;20059;-73
2022/09/03 11:27:41;;;;;;;10.43;2.45;;;23.60;65.10;;;;;;4954207;29;20039;-71
2022/09/03 11:30:34;;;;;;;10.17;2.40;;;23.60;65.60;;;;;;4937445;29;20051;-72
2022/09/03 11:33:08;;;;;;;7.80;2.60;;;23.60;65.70;;;;;;4954421;29;20047;-72
2022/09/03 11:35:33;;;;;;;9.57;2.63;;;23.70;65.20;;;;;;4936799;29;20508;-73
2022/09/03 11:38:01;;;;;;;9.57;2.13;;;23.70;64.60;;;;;;4938081;29;20058;-73
2022/09/03 11:40:39;;;;;;;9.32;2.60;;;23.70;65.20;;;;;;4953971;29;20495;-73
2022/09/03 11:43:28;;;;;;;10.50;2.35;;;23.80;63.90;;;;;;4937735;29;20094;-72
2022/09/03 11:46:13;;;;;;;6.55;2.30;;;23.90;63.60;;;;;;4929576;29;20059;-73
2022/09/03 11:48:45;;;;;;;7.17;2.30;;;23.90;63.90;;;;;;4954510;29;20047;-73
2022/09/03 11:51:29;;;;;;;6.18;2.40;;;24.00;64.20;;;;;;4954140;29;20786;-72
2022/09/03 11:54:24;;;;;;;6.55;2.38;;;24.10;63.80;;;;;;4937180;29;20110;-72
2022/09/03 11:57:02;;;;;;;4.65;2.30;;;24.10;63.60;;;;;;4937186;29;20043;-73
2022/09/03 11:59:29;;;;;;;5.70;2.30;;;24.10;63.40;;;;;;4954504;29;20050;-73
2022/09/03 12:02:11;;;;;;;7.00;2.45;;;24.10;62.60;;;;;;4936580;29;20043;-75
2022/09/03 12:04:51;;;;;;;8.80;2.30;;;24.10;63.10;;;;;;4937054;29;20047;-72
2022/09/03 12:07:47;;;;;;;4.68;1.90;;;24.10;62.80;;;;;;4937026;29;20131;-72
2022/09/03 12:10:25;;;;;;;8.63;2.47;;;24.10;63.40;;;;;;4953484;29;20126;-71
2022/09/03 12:13:33;;;;;;;9.07;2.30;;;24.20;63.40;;;;;;4936768;29;20051;-72
2022/09/03 12:16:28;;;;;;;7.28;2.40;;;24.40;61.90;;;;;;4954091;29;20055;-72
2022/09/03 12:19:04;;;;;;;7.03;2.08;;;24.30;61.90;;;;;;4953892;29;20054;-74
2022/09/03 12:21:37;;;;;;;7.38;2.33;;;24.40;61.90;;;;;;4954006;29;20091;-73
2022/09/03 12:24:02;;;;;;;6.10;2.10;;;24.40;62.00;;;;;;4953767;29;20051;-72
2022/09/03 12:26:28;;;;;;;7.70;1.90;;;24.50;61.80;;;;;;4937901;29;20062;-73
2022/09/03 12:28:57;;;;;;;7.20;2.13;;;24.40;62.20;;;;;;4957142;29;20062;-73
2022/09/03 12:31:28;;;;;;;4.80;1.92;;;24.40;62.40;;;;;;4939922;29;20062;-73
2022/09/03 12:33:58;;;;;;;4.72;1.70;;;24.50;61.40;;;;;;4957046;29;20055;-72
2022/09/03 12:36:25;;;;;;;5.10;2.10;;;24.50;60.90;;;;;;4957138;29;20051;-73
2022/09/03 12:38:51;;;;;;;6.28;2.40;;;24.50;62.00;;;;;;4924385;29;20043;-72
2022/09/03 12:41:29;;;;;;;9.10;2.15;;;24.50;62.40;;;;;;4939571;29;20146;-72
2022/09/03 12:43:59;;;;;;;5.07;2.13;;;24.60;61.70;;;;;;4939565;29;20437;-72
2022/09/03 12:46:28;;;;;;;8.73;2.20;;;24.60;61.50;;;;;;4956558;29;20122;-73
2022/09/03 12:48:55;;;;;;;9.02;2.08;;;24.60;61.80;;;;;;4956489;29;20039;-72
2022/09/03 12:51:21;;;;;;;5.78;2.13;;;24.70;61.10;;;;;;4956507;29;20047;-73
2022/09/03 12:53:50;;;;;;;6.30;1.90;;;24.70;61.00;;;;;;4939565;29;20372;-73
2022/09/03 12:56:16;;;;;;;7.13;1.77;;;24.60;61.30;;;;;;4939736;29;20047;-72
2022/09/03 12:58:54;;;;;;;5.88;1.95;;;24.60;60.90;;;;;;4941258;29;20047;-73
2022/09/03 13:01:31;;;;;;;6.35;1.95;;;24.60;61.60;;;;;;4957331;29;20089;-73
2022/09/03 13:04:09;;;;;;;4.80;1.90;;;24.70;61.80;;;;;;4940211;29;20046;-73
2022/09/03 13:06:59;;;;;;;5.38;1.92;;;24.70;61.40;;;;;;4939761;29;20130;-73
2022/09/03 13:09:28;;;;;;;6.97;2.08;;;24.80;61.30;;;;;;4957294;29;20051;-73
2022/09/03 13:11:57;;;;;;;5.18;1.65;;;24.80;60.50;;;;;;4956631;29;20114;-72
2022/09/03 13:14:26;;;;;;;12.50;2.00;;;24.80;60.90;;;;;;4956496;29;20488;-74
2022/09/03 13:17:27;;;;;;;7.15;2.28;;;24.90;61.10;;;;;;4956310;29;20102;-74
2022/09/03 13:20:14;;;;;;;5.00;2.00;;;24.90;61.00;;;;;;4952953;29;20071;-72
2022/09/03 13:22:57;;;;;;;6.15;2.10;;;24.90;61.00;;;;;;4939524;29;20502;-71